ADDS METAR Data INFO
IDs: Format: Raw Decoded Include TAF

Data at: 1016 UTC 14 Dec 2017

KCBF 141015Z AUTO 32006KT 10SM OVC040 01/M02 A3001 RMK AO2
KCBF 140955Z AUTO 33007KT 10SM OVC038 01/M02 A3001 RMK AO2
KCBF 140935Z AUTO 32006KT 10SM OVC037 01/M02 A3001 RMK AO2
KCBF 140915Z AUTO 31005KT 10SM OVC037 01/M02 A3001 RMK AO2
KCBF 140855Z AUTO 32006KT 10SM OVC037 01/M02 A3001 RMK AO2
KCBF 140835Z AUTO 33005KT 10SM OVC037 01/M02 A3000 RMK AO2
KCBF 140815Z AUTO 34005KT 10SM OVC041 01/M02 A3000 RMK AO2
KCBF 140755Z AUTO 34009G16KT 10SM OVC043 02/M03 A3000 RMK AO2
KCBF 140735Z AUTO 35008KT 10SM OVC039 02/M03 A2999 RMK AO2
KCBF 140715Z AUTO 35009G16KT 10SM OVC033 02/M03 A2998 RMK AO2
KCBF 140655Z AUTO 34011KT 10SM OVC033 02/M03 A2998 RMK AO2
KCBF 140635Z AUTO 34009G14KT 10SM FEW028 OVC034 02/M03 A2998 RMK AO2
KCBF 140615Z AUTO 36009KT 10SM FEW028 OVC035 02/M02 A2998 RMK AO2
KCBF 140555Z AUTO 36008G14KT 10SM OVC034 02/M02 A2998 RMK AO2
KCBF 140535Z AUTO 36011G17KT 10SM OVC034 02/M02 A2998 RMK AO2
KCBF 140515Z AUTO 35007KT 10SM OVC037 02/M02 A2998 RMK AO2
KCBF 140455Z AUTO 36011KT 10SM BKN032 OVC038 03/M02 A2997 RMK AO2
KCBF 140435Z AUTO 36011KT 10SM OVC031 03/M02 A2996 RMK AO2
KCBF 140415Z AUTO 01012KT 10SM OVC031 03/M01 A2995 RMK AO2
KCBF 140355Z AUTO 36011KT 10SM OVC029 03/M01 A2994 RMK AO2
KCBF 140335Z AUTO 01016KT 10SM OVC029 04/M02 A2993 RMK AO2
KCBF 140315Z AUTO 34013G18KT 10SM OVC030 04/M02 A2993 RMK AO2
KCBF 140255Z AUTO 33013G25KT 10SM OVC032 04/M03 A2992 RMK AO2
KCBF 140235Z AUTO 33014G19KT 10SM OVC034 04/M03 A2992 RMK AO2
KCBF 140215Z AUTO 32013G21KT 10SM OVC036 04/M03 A2991 RMK AO2
KCBF 140155Z AUTO 33014G27KT 10SM OVC037 04/M03 A2990 RMK AO2
KCBF 140135Z AUTO 33013G19KT 10SM OVC038 04/M03 A2990 RMK AO2
KCBF 140115Z AUTO 34013G29KT 10SM OVC038 04/M03 A2990 RMK AO2
KCBF 140055Z AUTO 34017G24KT 10SM OVC035 04/M02 A2989 RMK AO2
KCBF 140035Z AUTO 35017G28KT 10SM OVC033 05/M01 A2989 RMK AO2
KCBF 140015Z AUTO 33013G20KT 10SM OVC036 05/M01 A2988 RMK AO2
KCBF 132355Z AUTO 33016KT 10SM OVC037 05/M02 A2988 RMK AO2
KCBF 132335Z AUTO 33016G21KT 10SM OVC038 05/M01 A2987 RMK AO2
KCBF 132315Z AUTO 33015KT 10SM OVC036 05/M01 A2986 RMK AO2
KCBF 132255Z AUTO 33021G27KT 10SM OVC037 05/M02 A2986 RMK AO2
KCBF 132235Z AUTO 33024G30KT 10SM OVC037 06/M01 A2984 RMK AO2
KCBF 132215Z AUTO 33019G24KT 10SM OVC037 06/M01 A2983 RMK AO2
KCBF 132155Z AUTO 33021G32KT 10SM BKN038 07/M01 A2982 RMK AO2
KCBF 132135Z AUTO 33017G28KT 10SM FEW038 08/M01 A2981 RMK AO2
KCBF 132115Z AUTO 32014G26KT 10SM CLR 08/M01 A2980 RMK AO2
KCBF 132055Z AUTO 34024G32KT 10SM FEW041 08/M01 A2978 RMK AO2
KCBF 132035Z AUTO 33018G33KT 10SM FEW041 09/M01 A2977 RMK AO2
KCBF 132015Z AUTO 32012G26KT 10SM FEW042 09/M00 A2977 RMK AO2
KCBF 131955Z AUTO 33020G27KT 10SM CLR 09/M00 A2976 RMK AO2
KCBF 131935Z AUTO 33018G27KT 10SM CLR 09/M00 A2976 RMK AO2
KCBF 131915Z AUTO 33023G30KT 10SM CLR 09/M00 A2975 RMK AO2
KCBF 131855Z AUTO 32023G31KT 10SM FEW041 09/M00 A2975 RMK AO2
KCBF 131835Z AUTO 33022G32KT 10SM CLR 10/M00 A2974 RMK AO2
KCBF 131815Z AUTO 32021G32KT 10SM CLR 10/M01 A2974 RMK AO2
KCBF 131755Z AUTO 32023G33KT 10SM CLR 10/M01 A2973 RMK AO2
KCBF 131735Z AUTO 32023G33KT 10SM CLR 10/M01 A2974 RMK AO2
KCBF 131715Z AUTO 33028G36KT 10SM CLR 10/M01 A2973 RMK AO2
KCBF 131655Z AUTO 32021G34KT 10SM CLR 10/M01 A2973 RMK AO2
KCBF 131635Z AUTO 32029G38KT 10SM CLR 10/M01 A2972 RMK AO2
KCBF 131615Z AUTO 32018G31KT 10SM CLR 10/M00 A2971 RMK AO2
KCBF 131555Z AUTO 32024G31KT 10SM CLR 09/00 A2970 RMK AO2
KCBF 131535Z AUTO 32021G32KT 10SM FEW037 09/00 A2970 RMK AO2
KCBF 131515Z AUTO 32018G30KT 10SM SCT040 SCT048 BKN055 09/00 A2969 RMK AO2
KCBF 131455Z AUTO 32020G36KT 10SM BKN049 BKN060 BKN075 09/00 A2968 RMK AO2
KCBF 131435Z AUTO 32034G46KT 9SM CLR 10/M01 A2966 RMK AO2
KCBF 131415Z AUTO 31023G31KT 10SM CLR 09/M02 A2965 RMK AO2
KCBF 131355Z AUTO 31020G26KT 10SM CLR 09/M03 A2965 RMK AO2
KCBF 131335Z AUTO 30012KT 10SM CLR 08/M03 A2965 RMK AO2
KCBF 131315Z AUTO 30012G18KT 10SM CLR 09/M04 A2964 RMK AO2
KCBF 131255Z AUTO 30014G21KT 10SM CLR 09/M04 A2963 RMK AO2
KCBF 131235Z AUTO 29013G21KT 10SM SCT095 08/M05 A2962 RMK AO2
KCBF 131215Z AUTO 29011KT 10SM BKN095 08/M05 A2961 RMK AO2
KCBF 131155Z AUTO 29014G21KT 10SM FEW100 SCT120 08/M05 A2961 RMK AO2
KCBF 131135Z AUTO 29015G21KT 10SM BKN120 07/M05 A2961 RMK AO2
KCBF 131115Z AUTO 30018G26KT 10SM CLR 08/M05 A2961 RMK AO2
KCBF 131055Z AUTO 29015KT 10SM CLR 07/M05 A2961 RMK AO2
KCBF 131035Z AUTO 28013KT 10SM CLR 05/M05 A2961 RMK AO2
KCBF 131015Z AUTO 28009G17KT 10SM CLR 03/M04 A2962 RMK AO2
KCBF 130955Z AUTO 24009KT 10SM CLR 01/M04 A2963 RMK AO2
KCBF 130935Z AUTO 24009KT 10SM CLR 01/M04 A2963 RMK AO2
KCBF 130915Z AUTO 23008KT 10SM CLR 01/M03 A2963 RMK AO2
KCBF 130855Z AUTO 23011KT 10SM CLR 02/M03 A2963 RMK AO2
KCBF 130835Z AUTO 22011KT 10SM CLR 02/M03 A2965 RMK AO2
KCBF 130815Z AUTO 22010KT 10SM CLR 02/M03 A2965 RMK AO2
KCBF 130755Z AUTO 23010KT 10SM CLR 01/M03 A2966 RMK AO2
KCBF 130735Z AUTO 22011KT 10SM CLR 02/M03 A2967 RMK AO2
KCBF 130715Z AUTO 21011KT 10SM CLR 02/M03 A2968 RMK AO2
KCBF 130655Z AUTO 21010KT 10SM CLR 02/M03 A2970 RMK AO2
KCBF 130635Z AUTO 21011KT 10SM CLR 03/M03 A2972 RMK AO2
KCBF 130615Z AUTO 21012G18KT 10SM CLR 03/M03 A2974 RMK AO2
KCBF 130555Z AUTO 21012KT 10SM CLR 02/M03 A2975 RMK AO2
KCBF 130535Z AUTO 20009KT 10SM CLR 02/M03 A2977 RMK AO2
KCBF 130515Z AUTO 21010KT 10SM CLR 02/M03 A2979 RMK AO2
KCBF 130455Z AUTO 22011KT 10SM CLR 02/M03 A2980 RMK AO2
KCBF 130435Z AUTO 22012KT 10SM CLR 02/M03 A2980 RMK AO2
KCBF 130415Z AUTO 21011KT 10SM CLR 02/M03 A2981 RMK AO2
KCBF 130355Z AUTO 22012KT 10SM CLR 02/M03 A2983 RMK AO2
KCBF 130335Z AUTO 21013KT 10SM CLR 02/M02 A2984 RMK AO2
KCBF 130315Z AUTO 21010KT 10SM CLR 02/M02 A2987 RMK AO2
KCBF 130255Z AUTO 19008KT 10SM CLR 01/M02 A2989 RMK AO2
KCBF 130235Z AUTO 18008KT 10SM CLR 00/M02 A2991 RMK AO2
KCBF 130215Z AUTO 19005KT 10SM CLR 01/M02 A2993 RMK AO2
KCBF 130155Z AUTO 20007KT 10SM CLR 02/M02 A2994 RMK AO2
KCBF 130135Z AUTO 21005KT 10SM CLR 01/M01 A2994 RMK AO2
KCBF 130115Z AUTO 19006KT 10SM CLR 01/M02 A2995 RMK AO2
KCBF 130055Z AUTO 20007KT 10SM CLR 02/M01 A2996 RMK AO2
KCBF 130035Z AUTO 20008KT 10SM CLR 02/M02 A2996 RMK AO2
KCBF 130015Z AUTO 19008KT 10SM CLR 01/M02 A2998 RMK AO2
KCBF 122355Z AUTO 18007KT 10SM CLR 01/M03 A2999 RMK AO2
KCBF 122335Z AUTO 17008KT 10SM CLR 01/M03 A3000 RMK AO2
KCBF 122315Z AUTO 18007KT 10SM CLR 01/M02 A3001 RMK AO2
KCBF 122255Z AUTO 17006KT 10SM CLR 02/M03 A3003 RMK AO2
KCBF 122235Z AUTO 19004KT 10SM CLR 03/M02 A3004 RMK AO2